Lester B. Pearson International Airport
CYYZ : rendu visible

Aérodrome :











RETROUVEZ-NOUS SUR...

 
LOGIN :

S'inscrire | Disclaimer

   EN    FR    IT 

 









Légende :    VFR   VFR Marginal   IFR   IFR Intensif   IFR Très Intensif
Visi : 
Plafond : 
>= 8 km
>= 3000ft
5 à 8 km
1000 à 3000 ft
1500m à 5 km
500 à 1000 ft
800 à 1500m
200 à 500 ft
< 800m
< 200 ft
Symboles :   Orages  Brouillard  Fortes neiges  Fortes précipitations  Vent > 20 kt






- Altitude de l'aérodrome : 569 ft
- Code IATA : YYZ


CYYZ - Lester B. Pearson International

DERNIER METAR :
  • 170900Z 06009KT 15SM SCT200 M07/M10 A3033 RMK CC3 SLP283

METARs EXPIRÉS :
  • 170800Z 06011KT 15SM FEW180 M06/M10 A3035 RMK AC2 SLP288
  • 170700Z 07013KT 15SM FEW025 FEW180 M06/M10 A3035 RMK SC1AC1 SC TR SLP290

TAF TAF CYYZ
Valide du 17 à 09h jusqu'au 18 à 12h UTC


170839Z 1709/1812 07013KT P6SM FEW180
FM171200 05008KT P6SM SKC
BECMG 1715/1717 11010KT
FM172000 06008KT P6SM SKC
FM180100 01008KT P6SM SCT200
FM180800 01008KT P6SM BKN150
FM181100 06006KT 5SM -SN -FZRA BR BKN015 OVC030 RMK NXT FCST BY 171200Z



MET'MAP, la Météo Aéronautique d'un coup d'oeil ! - Copyright ORBIFLY Décembre 2007 - Disclaimer

ORBIFLY MET'MAP TEAM :

Programmation & Développement : Alexandra Zaïnal
Conception & Développement : Baudouin d'Aumeries
Co-Programmation & Développement : Marc-Olivier Méhu
Soutien technique & logistique : Manuel Goepfert

Contact : metmap@orbifly.com




SOURCES & CREDITS :

   NOAA       Earth
Advisory